AirNav   Air Wisconsin Up To $57,000 Bonus
 
 1058 users online  

3NC7 Maxwell Airport
Sparta, North Carolina, USA

GOING TO SPARTA?


FAA INFORMATION EFFECTIVE 04 NOVEMBER 2021

Location

FAA Identifier: 3NC7
Lat/Long: 36-31-09.4630N 081-08-12.3120W
36-31.157717N 081-08.205200W
36.5192953,-81.1367533
(estimated)
Elevation: 3050 ft. / 930 m (estimated)
Variation: 05W (1984)
From city: 1 mile NW of SPARTA, NC
Time zone: UTC -4 (UTC -5 during Standard Time)
Zip code: 28675

Airport Operations

Airport use: Private use. Permission required prior to landing
Activation date: 06/1984
Control tower: no
ARTCC: ATLANTA CENTER
FSS: RALEIGH FLIGHT SERVICE STATION
Attendance: UNATNDD
Wind indicator: yes
Segmented circle: no

Airport Communications

WX AWOS-3 at GEV (15 nm W): 120.675 (336-982-5555)
WX AWOS-3 at UKF (18 nm S): 126.625 (336-696-3788)

Nearby radio navigation aids

VOR radial/distance  VOR name  Freq  Var
BZMr013/39.3BARRETTS MOUNTAIN VOR/DME113.7506W
PSKr217/39.7PULASKI VORTAC116.8006W

 
NDB name  Hdg/Dist  Freq  Var  ID
ASHEE067/10.341007WJUH .--- ..- ....

Airport Services

Runway Information

Runway 17/35

Dimensions: 1300 x 60 ft. / 396 x 18 m
Surface: turf
Operational restrictions: ALL LNDGS TO THE N; TKOFS TO THE S.
RUNWAY 17  RUNWAY 35
Traffic pattern: leftleft
Obstructions: plinesnone

Airport Ownership and Management from official FAA records

Ownership: Privately-owned
Owner: W. A. MAXWELL
PO BOX 414
SPARTA, NC 28675
Phone 336-372-2347
Manager: W. A. MAXWELL
1310 HWY 21 N
SPARTA, NC 28675
Phone 336-372-2347

Additional Remarks

FOR CD CTC ATLANTA ARTCC AT 770-210-7692.

Instrument Procedures

There are no published instrument procedures at 3NC7.

Some nearby airports with instrument procedures:

KGEV - Ashe County Airport (15 nm W)
KUKF - Wilkes County Airport (18 nm S)
KHLX - Twin County Airport (21 nm NE)
KZEF - Elkin Municipal Airport (22 nm SE)
KMKJ - Mountain Empire Airport (25 nm NW)
 
Loc | Ops | Rwys | IFR | FBO | Links
Com | Nav | Svcs | Stats | Notes
Area around 3NC7 (Maxwell Airport)
 
Road maps at: MapQuest Bing Google
 
Aerial photo
No photo
 
Sectional chart

 
Airport distance calculator
Flying to Maxwell Airport? Find the distance to fly.

From to 3NC7

Sunrise and sunset
Times for 27-Nov-2021
 Local
(UTC-5)
 Zulu
(UTC)
Morning civil twilight06:4711:47
Sunrise07:1512:15
Sunset17:0922:09
Evening civil twilight17:3722:37

Current date and time
Zulu (UTC)  28-Nov-2021 03:21:41
Local (UTC-5)  27-Nov-2021 22:21:41
 
METAR
KGEV 
14nm W 
280255Z AUTO 00000KT 10SM CLR 04/M14 A2994 RMK AO2 T00431136
KUKF 
18nm S 
280255Z AUTO 00000KT 10SM CLR 05/M06 A3001 RMK AO2
KHLX 
21nm NE 
280255Z AUTO 22006KT 10SM BKN090 04/M08 A2992 RMK AO2 T00431080
KMKJ 
24nm NW 
280255Z AUTO 24008KT 10SM CLR A2996 RMK AO2
KMWK 
28nm E 
280255Z AUTO 00000KT 10SM 01/M04 A2999 RMK AO2 T00121043
TAF
KBLF 
47nm N 
271720Z 2718/2818 25008KT P6SM SCT060 FM272000 23008KT P6SM SCT250 FM280300 24008KT P6SM FEW250 WS020/26030KT FM280800 26009KT P6SM SKC FM281300 27009G15KT P6SM SKC
KHKY 
48nm S 
271725Z 2718/2818 22006KT P6SM SCT100 FM272300 22004KT P6SM FEW200 FM280800 29003KT P6SM SCT200 FM281500 26005KT P6SM BKN200
NOTAMs
Click for the latest NOTAMs
NOTAMs are issued by the DoD/FAA and will open in a separate window not controlled by AirNav.

 

 
 

Would you like to see your business listed on this page?

 If your business provides an interesting product or service to pilots, flight crews, aircraft, or users of the Maxwell Airport, you should consider listing it here.  To start the listing process, click on the button below
 
Add a business
 

Other Pages about Maxwell Airport

Update a link
 
Copyright © AirNav, LLC. All rights reserved. Privacy Policy  Contact